Time;durP1;ratioP1;P1;durP2;ratioP2;P2;SDS_P1;SDS_P2;PMS_P1;PMS_P2;Temp;Humidity;BMP_temperature;BMP_pressure;BME280_temperature;BME280_humidity;BME280_pressure;Samples;Min_cycle;Max_cycle;Signal;HPM_P1;HPM_P2
2022/08/30 00:01:23;;;;;;;0.43;0.40;;;15.60;99.30;;;;;;5004766;28;20437;-62
2022/08/30 00:03:53;;;;;;;0.90;0.60;;;15.70;99.20;;;;;;5002627;28;20444;-62
2022/08/30 00:06:22;;;;;;;1.00;0.50;;;15.80;99.00;;;;;;5006213;28;20476;-62
2022/08/30 00:08:50;;;;;;;0.30;0.30;;;15.80;99.00;;;;;;5003363;28;20523;-62
2022/08/30 00:11:21;;;;;;;0.38;0.38;;;15.80;98.90;;;;;;5005418;28;20445;-62
2022/08/30 00:13:51;;;;;;;0.40;0.40;;;15.80;98.80;;;;;;5005416;28;20765;-62
2022/08/30 00:16:20;;;;;;;0.60;0.60;;;15.70;98.90;;;;;;5001872;28;20441;-62
2022/08/30 00:18:47;;;;;;;0.52;0.52;;;15.60;99.00;;;;;;5003729;28;20508;-61
2022/08/30 00:21:14;;;;;;;0.50;0.50;;;15.50;99.10;;;;;;5001154;28;21255;-61
2022/08/30 00:23:41;;;;;;;0.50;0.50;;;15.50;99.10;;;;;;5002259;28;20447;-62
2022/08/30 00:26:08;;;;;;;0.32;0.32;;;15.50;99.10;;;;;;5005781;28;20459;-62
2022/08/30 00:28:36;;;;;;;0.80;0.50;;;15.60;99.10;;;;;;5002840;28;20911;-62
2022/08/30 00:31:03;;;;;;;1.17;0.60;;;15.50;99.10;;;;;;5006633;28;20436;-61
2022/08/30 00:33:30;;;;;;;0.40;0.40;;;15.50;99.20;;;;;;5004728;28;20523;-62
2022/08/30 00:35:58;;;;;;;0.45;0.45;;;15.50;99.20;;;;;;4999606;28;20432;-62
2022/08/30 00:38:27;;;;;;;0.50;0.50;;;15.40;99.20;;;;;;5003736;28;20766;-62
2022/08/30 00:40:54;;;;;;;1.35;0.75;;;15.30;99.20;;;;;;5010020;28;20433;-62
2022/08/30 00:43:28;;;;;;;0.60;0.60;;;15.40;99.30;;;;;;5005894;28;20451;-62
2022/08/30 00:45:57;;;;;;;1.80;0.50;;;15.40;99.40;;;;;;4990376;28;20454;-61
2022/08/30 00:48:24;;;;;;;0.50;0.50;;;15.30;99.40;;;;;;5002384;28;20433;-61
2022/08/30 00:51:01;;;;;;;0.53;0.53;;;;;;;;;;5002861;28;20451;-62
2022/08/30 00:53:30;;;;;;;0.38;0.38;;;;;;;;;;5003305;28;20439;-61
2022/08/30 00:55:58;;;;;;;0.70;0.70;;;;;;;;;;5002611;28;20464;-62
2022/08/30 00:58:30;;;;;;;0.57;0.57;;;;;;;;;;5000872;28;20959;-61
2022/08/30 01:00:59;;;;;;;0.60;0.60;;;;;;;;;;5010163;28;20547;-62
2022/08/30 01:03:30;;;;;;;0.40;0.40;;;;;;;;;;5005141;28;20434;-61
2022/08/30 01:05:58;;;;;;;0.45;0.45;;;;;;;;;;4998776;28;20818;-62
2022/08/30 01:08:26;;;;;;;0.50;0.50;;;;;;;;;;5004609;28;20533;-61
2022/08/30 01:10:53;;;;;;;0.70;0.70;;;;;;;;;;5006706;28;20447;-61
2022/08/30 01:13:24;;;;;;;1.40;0.60;;;15.20;99.40;;;;;;5008623;28;20432;-61
2022/08/30 01:15:51;;;;;;;0.50;0.50;;;14.80;99.90;;;;;;5009207;28;20434;-61
2022/08/30 01:18:19;;;;;;;0.40;0.40;;;14.70;99.90;;;;;;5008556;28;20435;-62
2022/08/30 01:20:51;;;;;;;0.60;0.60;;;14.70;99.90;;;;;;5004131;28;20534;-61
2022/08/30 01:23:20;;;;;;;0.50;0.50;;;14.60;99.90;;;;;;5005526;28;20470;-61
2022/08/30 01:25:49;;;;;;;1.10;0.70;;;14.50;99.90;;;;;;5006923;28;20455;-61
2022/08/30 01:28:22;;;;;;;0.70;0.70;;;14.50;99.90;;;;;;4999324;28;20441;-61
2022/08/30 01:30:52;;;;;;;0.57;0.57;;;14.60;99.90;;;;;;5001204;28;20436;-62
2022/08/30 01:33:20;;;;;;;0.55;0.55;;;14.70;99.90;;;;;;5005589;28;20432;-61
2022/08/30 01:35:52;;;;;;;3.50;0.70;;;14.70;99.90;;;;;;5007069;28;20475;-61
2022/08/30 01:38:23;;;;;;;0.50;0.50;;;14.80;99.90;;;;;;5004611;28;20475;-62
2022/08/30 01:40:55;;;;;;;0.70;0.70;;;14.90;99.90;;;;;;5000669;28;20453;-62
2022/08/30 01:43:22;;;;;;;0.65;0.65;;;14.90;99.90;;;;;;5004756;28;20439;-62
2022/08/30 01:45:48;;;;;;;0.40;0.40;;;14.80;99.90;;;;;;5000546;28;20434;-62
2022/08/30 01:48:15;;;;;;;0.60;0.60;;;14.70;99.90;;;;;;5004896;28;20434;-62
2022/08/30 01:50:42;;;;;;;0.50;0.50;;;14.70;99.90;;;;;;5004493;28;20432;-61
2022/08/30 01:53:09;;;;;;;2.20;0.70;;;14.60;99.90;;;;;;4999501;28;20433;-61
2022/08/30 01:55:39;;;;;;;0.50;0.50;;;14.50;99.90;;;;;;5005979;28;20426;-61
2022/08/30 01:58:06;;;;;;;0.40;0.40;;;14.50;99.90;;;;;;5000889;28;20530;-61
2022/08/30 02:00:32;;;;;;;0.52;0.52;;;14.50;99.90;;;;;;5002879;28;20511;-61
2022/08/30 02:02:59;;;;;;;0.43;0.43;;;14.40;99.90;;;;;;5004869;28;20461;-62
2022/08/30 02:05:26;;;;;;;0.88;0.63;;;;;;;;;;5004974;28;20468;-61
2022/08/30 02:07:54;;;;;;;0.35;0.35;;;;;;;;;;5004353;28;20472;-61
2022/08/30 02:10:21;;;;;;;0.40;0.40;;;;;;;;;;5002351;28;20925;-61
2022/08/30 02:12:48;;;;;;;0.60;0.60;;;14.30;99.90;;;;;;5008012;28;20516;-61
2022/08/30 02:15:15;;;;;;;0.60;0.60;;;13.90;99.90;;;;;;5007307;28;20539;-61
2022/08/30 02:17:45;;;;;;;0.32;0.32;;;13.80;99.90;;;;;;5007994;28;20428;-61
2022/08/30 02:20:12;;;;;;;1.37;0.40;;;13.80;99.90;;;;;;5009010;28;20776;-61
2022/08/30 02:22:39;;;;;;;0.57;0.57;;;13.80;99.90;;;;;;4998132;28;20444;-61
2022/08/30 02:25:14;;;;;;;0.40;0.40;;;13.70;99.90;;;;;;5008698;28;21127;-61
2022/08/30 02:27:47;;;;;;;0.60;0.40;;;13.70;99.90;;;;;;4998764;28;20551;-61
2022/08/30 02:30:14;;;;;;;0.40;0.40;;;13.70;99.90;;;;;;4999908;28;20517;-61
2022/08/30 02:32:40;;;;;;;1.50;0.70;;;13.80;99.90;;;;;;5005377;28;20950;-61
2022/08/30 02:35:08;;;;;;;1.20;0.40;;;13.80;99.90;;;;;;5008754;28;20947;-61
2022/08/30 02:37:35;;;;;;;0.65;0.65;;;13.80;99.90;;;;;;5006240;28;20455;-61
2022/08/30 02:40:03;;;;;;;0.40;0.40;;;13.90;99.90;;;;;;5028442;28;20464;-62
2022/08/30 02:42:30;;;;;;;0.80;0.60;;;13.90;99.90;;;;;;5010207;28;20846;-61
2022/08/30 02:44:57;;;;;;;0.20;0.20;;;14.00;99.90;;;;;;5002695;28;20520;-61
2022/08/30 02:47:27;;;;;;;3.78;0.65;;;14.00;99.90;;;;;;5005143;28;20525;-61
2022/08/30 02:49:56;;;;;;;0.50;0.50;;;14.00;99.90;;;;;;5003309;28;20439;-61
2022/08/30 02:52:24;;;;;;;0.50;0.50;;;13.90;99.90;;;;;;5005427;28;20440;-62
2022/08/30 02:54:54;;;;;;;0.57;0.57;;;13.90;99.90;;;;;;5004613;28;20443;-61
2022/08/30 02:57:25;;;;;;;0.47;0.47;;;13.90;99.90;;;;;;5002155;28;20799;-61
2022/08/30 02:59:55;;;;;;;0.50;0.50;;;13.90;99.90;;;;;;5005984;28;22340;-61
2022/08/30 03:02:24;;;;;;;0.50;0.50;;;13.90;99.90;;;;;;5009702;28;20498;-61
2022/08/30 03:04:51;;;;;;;0.40;0.40;;;;;;;;;;5003613;28;20440;-61
2022/08/30 03:07:18;;;;;;;0.47;0.47;;;13.70;99.90;;;;;;5002166;28;20432;-61
2022/08/30 03:09:45;;;;;;;0.50;0.50;;;;;;;;;;5003780;28;20938;-61
2022/08/30 03:12:15;;;;;;;0.50;0.50;;;13.60;99.90;;;;;;4997368;28;20927;-61
2022/08/30 03:14:45;;;;;;;0.90;0.50;;;13.50;99.90;;;;;;5005957;28;20441;-62
2022/08/30 03:17:15;;;;;;;0.40;0.40;;;13.50;99.90;;;;;;5010551;28;20450;-61
2022/08/30 03:19:43;;;;;;;0.40;0.40;;;13.50;99.90;;;;;;5007245;28;20913;-61
2022/08/30 03:22:10;;;;;;;0.50;0.50;;;13.50;99.90;;;;;;5004273;28;20434;-61
2022/08/30 03:24:39;;;;;;;0.57;0.57;;;13.60;99.90;;;;;;5010910;28;20487;-61
2022/08/30 03:27:06;;;;;;;0.50;0.50;;;13.60;99.90;;;;;;5004805;28;20432;-61
2022/08/30 03:29:35;;;;;;;0.47;0.47;;;13.60;99.90;;;;;;5008369;28;20832;-61
2022/08/30 03:32:04;;;;;;;0.60;0.60;;;13.60;99.90;;;;;;5003918;28;20448;-62
2022/08/30 03:34:39;;;;;;;0.55;0.55;;;13.60;99.90;;;;;;5006277;28;20520;-61
2022/08/30 03:37:06;;;;;;;0.40;0.40;;;13.60;99.90;;;;;;5005510;28;20426;-61
2022/08/30 03:39:33;;;;;;;0.75;0.65;;;13.50;99.90;;;;;;5001216;28;20501;-61
2022/08/30 03:42:00;;;;;;;0.40;0.40;;;13.50;99.90;;;;;;5007269;28;20511;-61
2022/08/30 03:44:31;;;;;;;0.70;0.70;;;13.40;99.90;;;;;;5003749;28;20438;-61
2022/08/30 03:47:02;;;;;;;0.55;0.55;;;13.40;99.90;;;;;;5007611;28;20442;-61
2022/08/30 03:49:30;;;;;;;0.35;0.35;;;13.40;99.90;;;;;;5005404;28;20915;-61
2022/08/30 03:51:57;;;;;;;0.57;0.57;;;13.40;99.90;;;;;;5006690;28;20512;-62
2022/08/30 03:54:24;;;;;;;0.57;0.57;;;13.40;99.90;;;;;;5008719;28;20460;-62
2022/08/30 03:56:51;;;;;;;0.30;0.30;;;13.40;99.90;;;;;;5007687;28;20459;-61
2022/08/30 03:59:17;;;;;;;0.40;0.40;;;13.40;99.90;;;;;;5012020;28;20439;-61
2022/08/30 04:01:46;;;;;;;0.55;0.55;;;;;;;;;;5007709;28;20794;-61
2022/08/30 04:04:14;;;;;;;0.52;0.52;;;;;;;;;;5006478;28;20505;-61
2022/08/30 04:06:46;;;;;;;0.55;0.43;;;13.30;99.90;;;;;;5009207;28;20432;-61
2022/08/30 04:09:13;;;;;;;0.73;0.55;;;13.30;99.90;;;;;;5002137;28;20517;-61
2022/08/30 04:11:40;;;;;;;0.40;0.40;;;13.30;99.90;;;;;;5002113;28;20491;-62
2022/08/30 04:14:07;;;;;;;0.60;0.60;;;13.40;99.90;;;;;;5009644;28;20436;-62
2022/08/30 04:16:33;;;;;;;0.57;0.57;;;13.40;99.90;;;;;;5010866;28;20524;-61
2022/08/30 04:19:01;;;;;;;2.20;0.70;;;13.30;99.90;;;;;;5008555;28;20547;-61
2022/08/30 04:21:38;;;;;;;0.90;0.50;;;13.30;99.90;;;;;;5007281;28;20432;-61
2022/08/30 04:24:09;;;;;;;0.60;0.60;;;13.20;99.90;;;;;;5011287;28;20444;-61
2022/08/30 04:26:36;;;;;;;0.90;0.45;;;13.20;99.90;;;;;;4999258;28;20469;-61
2022/08/30 04:29:05;;;;;;;0.30;0.30;;;13.20;99.90;;;;;;4992384;28;20434;-61
2022/08/30 04:31:32;;;;;;;0.40;0.40;;;13.10;99.90;;;;;;5002434;28;20592;-61
2022/08/30 04:33:59;;;;;;;0.77;0.55;;;13.20;99.90;;;;;;5007203;28;20442;-61
2022/08/30 04:36:28;;;;;;;0.30;0.30;;;13.20;99.90;;;;;;4996602;28;20435;-61
2022/08/30 04:38:55;;;;;;;1.10;0.60;;;13.20;99.90;;;;;;5009693;28;20491;-61
2022/08/30 04:41:23;;;;;;;1.50;0.68;;;13.20;99.90;;;;;;5008800;28;20432;-61
2022/08/30 04:43:50;;;;;;;0.70;0.70;;;13.20;99.90;;;;;;5010356;28;20519;-61
2022/08/30 04:46:18;;;;;;;0.50;0.50;;;13.30;99.90;;;;;;4998148;28;20996;-61
2022/08/30 04:48:45;;;;;;;0.47;0.47;;;13.30;99.90;;;;;;5005413;28;20436;-61
2022/08/30 04:51:15;;;;;;;0.50;0.50;;;13.30;99.90;;;;;;5002475;28;20434;-61
2022/08/30 04:53:43;;;;;;;0.80;0.65;;;13.50;99.90;;;;;;4996582;28;20967;-61
2022/08/30 04:56:24;;;;;;;0.93;0.70;;;13.40;99.90;;;;;;5004380;28;20539;-61
2022/08/30 04:58:54;;;;;;;0.60;0.60;;;13.50;99.90;;;;;;4989698;28;20462;-61
2022/08/30 05:01:28;;;;;;;0.50;0.50;;;13.50;99.90;;;;;;5006020;28;20578;-61
2022/08/30 05:03:57;;;;;;;0.50;0.50;;;;;;;;;;5005167;28;20472;-63
2022/08/30 05:06:26;;;;;;;0.50;0.50;;;;;;;;;;5006428;28;20436;-61
2022/08/30 05:08:53;;;;;;;0.35;0.35;;;;;;;;;;5003669;28;20441;-61
2022/08/30 05:11:21;;;;;;;0.47;0.47;;;;;;;;;;4999660;28;20782;-61
2022/08/30 05:13:48;;;;;;;0.47;0.40;;;;;;;;;;5004723;28;20443;-61
2022/08/30 05:16:18;;;;;;;1.50;0.60;;;;;;;;;;5000080;28;20950;-61
2022/08/30 05:18:49;;;;;;;0.50;0.50;;;;;;;;;;5000612;28;20433;-61
2022/08/30 05:21:21;;;;;;;0.40;0.40;;;;;;;;;;4999404;28;20436;-61
2022/08/30 05:23:49;;;;;;;0.70;0.70;;;;;;;;;;5007692;28;20429;-61
2022/08/30 05:26:19;;;;;;;0.73;0.73;;;;;;;;;;5006211;28;20442;-61
2022/08/30 05:28:51;;;;;;;0.70;0.50;;;;;;;;;;4999296;28;20472;-61
2022/08/30 05:31:18;;;;;;;0.30;0.30;;;;;;;;;;4997003;28;20531;-61
2022/08/30 05:33:46;;;;;;;0.50;0.50;;;;;;;;;;5006032;28;20463;-61
2022/08/30 05:36:14;;;;;;;0.40;0.40;;;;;;;;;;4997486;28;22478;-64
2022/08/30 05:38:41;;;;;;;2.42;0.88;;;;;;;;;;5005181;28;20444;-63
2022/08/30 05:41:10;;;;;;;0.40;0.40;;;;;;;;;;5003904;28;20429;-62
2022/08/30 05:43:38;;;;;;;0.40;0.40;;;;;;;;;;5004841;28;20436;-62
2022/08/30 05:46:06;;;;;;;0.60;0.60;;;;;;;;;;5000744;28;20441;-62
2022/08/30 05:48:34;;;;;;;0.93;0.63;;;;;;;;;;4930539;28;20421;-62
2022/08/30 05:51:02;;;;;;;1.60;0.55;;;;;;;;;;5028166;28;20948;-63
2022/08/30 05:53:29;;;;;;;1.05;0.55;;;;;;;;;;5026017;28;20532;-62
2022/08/30 05:55:57;;;;;;;0.90;0.90;;;;;;;;;;5017983;28;20438;-62
2022/08/30 05:58:24;;;;;;;1.70;0.90;;;;;;;;;;5020406;28;20465;-62
2022/08/30 06:00:51;;;;;;;0.57;0.57;;;;;;;;;;5018507;28;20452;-62
2022/08/30 06:03:18;;;;;;;0.40;0.40;;;;;;;;;;5027157;28;20953;-62
2022/08/30 06:05:45;;;;;;;0.40;0.40;;;13.50;99.90;;;;;;5027311;28;20487;-62
2022/08/30 06:08:17;;;;;;;0.60;0.60;;;16.60;99.90;;;;;;5027136;28;21109;-62
2022/08/30 06:10:44;;;;;;;0.40;0.40;;;17.20;99.90;;;;;;5026276;28;20438;-62
2022/08/30 06:13:13;;;;;;;0.80;0.80;;;17.90;99.90;;;;;;5025699;28;20480;-62
2022/08/30 06:15:42;;;;;;;0.93;0.75;;;;;;;;;;5025262;28;20460;-62
2022/08/30 06:18:10;;;;;;;0.60;0.60;;;18.70;99.90;;;;;;5024278;28;20458;-63
2022/08/30 06:20:42;;;;;;;0.45;0.45;;;19.60;99.90;;;;;;5025601;28;20434;-62
2022/08/30 06:23:09;;;;;;;0.50;0.50;;;;;;;;;;5011023;28;20804;-63
2022/08/30 06:25:37;;;;;;;0.40;0.40;;;;;;;;;;5022415;28;20466;-62
2022/08/30 06:28:10;;;;;;;0.50;0.50;;;;;;;;;;5022628;28;20469;-63
2022/08/30 06:30:41;;;;;;;0.50;0.50;;;;;;;;;;5020625;28;20459;-62
2022/08/30 06:33:09;;;;;;;0.55;0.55;;;;;;;;;;5020196;28;20436;-62
2022/08/30 06:35:37;;;;;;;0.60;0.60;;;;;;;;;;5023485;28;20431;-62
2022/08/30 06:38:22;;;;;;;0.50;0.50;;;20.00;99.90;;;;;;5020192;28;20519;-63
2022/08/30 06:40:49;;;;;;;1.00;0.50;;;22.20;98.00;;;;;;5023498;28;20434;-62
2022/08/30 06:43:16;;;;;;;0.60;0.60;;;22.60;97.60;;;;;;5023680;28;20518;-62
2022/08/30 06:45:43;;;;;;;0.80;0.60;;;22.70;96.80;;;;;;5016126;28;20427;-63
2022/08/30 06:48:10;;;;;;;0.60;0.60;;;22.50;96.50;;;;;;5023565;28;20442;-61
2022/08/30 06:50:37;;;;;;;0.68;0.68;;;22.50;96.40;;;;;;5026902;28;20435;-63
2022/08/30 06:53:04;;;;;;;0.60;0.60;;;22.40;96.40;;;;;;5022969;28;20522;-63
2022/08/30 06:55:35;;;;;;;0.43;0.43;;;22.70;96.40;;;;;;5029197;28;20427;-62
2022/08/30 06:58:09;;;;;;;0.57;0.47;;;23.00;96.00;;;;;;5035735;28;20451;-62
2022/08/30 07:00:36;;;;;;;0.50;0.50;;;;;;;;;;5028979;28;20423;-62
2022/08/30 07:03:07;;;;;;;1.25;0.47;;;;;;;;;;5028769;28;20434;-63
2022/08/30 07:05:34;;;;;;;0.73;0.50;;;;;;;;;;5027341;28;21244;-62
2022/08/30 07:08:02;;;;;;;0.50;0.50;;;;;;;;;;5023131;28;20446;-62
2022/08/30 07:10:32;;;;;;;0.52;0.52;;;;;;;;;;5025610;28;20954;-62
2022/08/30 07:12:59;;;;;;;0.52;0.52;;;;;;;;;;5031445;28;20435;-62
2022/08/30 07:15:26;;;;;;;0.60;0.60;;;;;;;;;;5028445;28;20525;-62
2022/08/30 07:20:39;;;;;;;0.52;0.52;;;;;;;;;;5030824;28;20431;-62
2022/08/30 07:23:07;;;;;;;0.80;0.80;;;;;;;;;;5026586;28;20483;-62
2022/08/30 07:25:40;;;;;;;1.70;0.60;;;;;;;;;;5028496;28;20522;-62
2022/08/30 07:28:15;;;;;;;0.63;0.60;;;;;;;;;;5032075;28;20897;-62
2022/08/30 07:30:45;;;;;;;0.50;0.50;;;;;;;;;;5029145;28;20434;-62
2022/08/30 07:33:15;;;;;;;0.50;0.50;;;;;;;;;;5028480;28;20445;-62
2022/08/30 07:35:46;;;;;;;0.60;0.60;;;;;;;;;;5031909;28;20508;-62
2022/08/30 07:38:14;;;;;;;0.57;0.57;;;;;;;;;;5028139;28;20469;-61
2022/08/30 07:40:41;;;;;;;0.40;0.40;;;;;;;;;;5030954;28;20433;-62
2022/08/30 07:43:08;;;;;;;0.35;0.35;;;;;;;;;;5019830;28;20533;-63
2022/08/30 07:45:37;;;;;;;0.57;0.57;;;;;;;;;;5032150;28;20434;-62
2022/08/30 07:48:06;;;;;;;0.52;0.52;;;;;;;;;;5029287;28;20445;-62
2022/08/30 07:50:33;;;;;;;0.50;0.50;;;;;;;;;;5030420;28;20522;-62
2022/08/30 07:53:03;;;;;;;0.45;0.45;;;;;;;;;;5029249;28;20439;-62
2022/08/30 07:55:35;;;;;;;0.90;0.60;;;;;;;;;;5029746;28;20794;-63
2022/08/30 07:58:05;;;;;;;0.55;0.55;;;;;;;;;;5025518;28;20428;-62
2022/08/30 08:00:32;;;;;;;0.82;0.50;;;;;;;;;;5017645;28;20433;-63
2022/08/30 08:03:06;;;;;;;0.60;0.60;;;;;;;;;;5023216;28;20431;-62
2022/08/30 08:05:44;;;;;;;0.40;0.40;;;;;;;;;;5032007;28;20439;-62
2022/08/30 08:08:11;;;;;;;0.50;0.50;;;;;;;;;;5028004;28;21017;-62
2022/08/30 08:10:39;;;;;;;0.40;0.40;;;;;;;;;;5029533;28;20450;-61
2022/08/30 08:13:07;;;;;;;0.50;0.50;;;;;;;;;;5020263;28;20989;-62
2022/08/30 08:15:35;;;;;;;0.60;0.60;;;;;;;;;;5022613;28;20556;-62
2022/08/30 08:18:05;;;;;;;0.90;0.68;;;;;;;;;;5031158;28;20431;-62
2022/08/30 08:20:35;;;;;;;0.40;0.40;;;;;;;;;;5010817;28;20440;-62
2022/08/30 08:23:04;;;;;;;1.02;0.50;;;26.60;91.40;;;;;;5015309;28;20851;-62
2022/08/30 08:25:31;;;;;;;0.70;0.70;;;26.50;91.00;;;;;;5025541;28;20430;-62
2022/08/30 08:27:58;;;;;;;0.60;0.60;;;26.60;91.20;;;;;;5030864;28;20534;-62
2022/08/30 08:30:25;;;;;;;1.60;0.73;;;26.50;91.10;;;;;;5023506;28;20431;-62
2022/08/30 08:32:52;;;;;;;0.60;0.60;;;26.50;91.30;;;;;;5030641;28;20469;-62
2022/08/30 08:35:19;;;;;;;0.52;0.52;;;26.60;91.60;;;;;;5024785;28;20467;-62
2022/08/30 08:37:49;;;;;;;0.65;0.55;;;26.60;91.00;;;;;;5012636;28;21008;-62
2022/08/30 08:40:18;;;;;;;0.55;0.55;;;26.70;91.00;;;;;;5030710;28;20889;-62
2022/08/30 08:42:56;;;;;;;0.52;0.52;;;26.60;91.20;;;;;;5029414;28;20850;-62
2022/08/30 08:45:42;;;;;;;0.40;0.40;;;26.50;91.00;;;;;;5028039;28;20520;-62
2022/08/30 08:48:40;;;;;;;0.63;0.63;;;26.10;90.80;;;;;;5029240;28;20439;-62
2022/08/30 08:54:18;;;;;;;0.40;0.40;;;26.50;90.90;;;;;;5029758;28;21177;-62
2022/08/30 08:56:44;;;;;;;0.70;0.50;;;26.40;90.80;;;;;;5020773;28;20427;-62
2022/08/30 08:59:16;;;;;;;0.80;0.60;;;26.60;90.70;;;;;;5030200;28;20422;-61
2022/08/30 09:01:43;;;;;;;0.50;0.50;;;26.70;90.60;;;;;;5019204;28;20432;-62
2022/08/30 09:04:18;;;;;;;0.70;0.70;;;26.60;90.60;;;;;;5025784;28;20434;-62
2022/08/30 09:06:53;;;;;;;0.77;0.50;;;;;;;;;;5028546;28;20431;-62
2022/08/30 09:09:26;;;;;;;0.60;0.60;;;;;;;;;;5030354;28;20439;-62
2022/08/30 09:11:53;;;;;;;0.57;0.57;;;;;;;;;;5027656;28;20459;-62
2022/08/30 09:14:25;;;;;;;0.60;0.60;;;;;;;;;;5014598;28;20436;-62
2022/08/30 09:16:56;;;;;;;0.60;0.60;;;;;;;;;;5014744;28;20459;-62
2022/08/30 09:19:41;;;;;;;0.50;0.50;;;;;;;;;;5028722;28;20933;-62
2022/08/30 09:22:32;;;;;;;0.60;0.60;;;26.90;90.70;;;;;;5027223;28;20431;-62
2022/08/30 09:25:09;;;;;;;0.60;0.60;;;27.10;90.10;;;;;;5028360;28;20909;-62
2022/08/30 09:27:41;;;;;;;0.40;0.40;;;27.00;90.00;;;;;;5029706;28;20605;-62
2022/08/30 09:30:18;;;;;;;0.50;0.50;;;27.00;90.80;;;;;;5010649;28;20940;-62
2022/08/30 09:32:53;;;;;;;0.80;0.80;;;27.50;89.60;;;;;;5011762;28;20509;-62
2022/08/30 09:35:36;;;;;;;0.40;0.40;;;27.50;89.30;;;;;;5022219;28;20493;-62
2022/08/30 09:38:31;;;;;;;0.50;0.50;;;27.70;88.50;;;;;;5028285;28;20794;-62
2022/08/30 09:41:03;;;;;;;0.80;0.70;;;27.70;89.00;;;;;;5026689;28;20806;-62
2022/08/30 09:43:32;;;;;;;0.50;0.50;;;27.80;88.40;;;;;;5021769;28;20512;-63
2022/08/30 09:46:02;;;;;;;1.10;0.50;;;28.20;88.70;;;;;;5027703;28;20458;-63
2022/08/30 09:48:39;;;;;;;0.57;0.57;;;;;;;;;;5027140;28;20433;-63
2022/08/30 09:51:09;;;;;;;0.50;0.40;;;28.60;87.80;;;;;;5021226;28;20439;-63
2022/08/30 09:54:11;;;;;;;0.40;0.40;;;29.30;86.50;;;;;;5026216;28;20471;-63
2022/08/30 09:57:10;;;;;;;0.65;0.57;;;29.30;86.40;;;;;;5010842;28;20568;-62
2022/08/30 09:59:53;;;;;;;0.40;0.40;;;29.20;87.00;;;;;;5025205;28;20481;-63
2022/08/30 10:02:57;;;;;;;0.43;0.43;;;29.10;86.90;;;;;;5010602;28;20432;-62
2022/08/30 10:05:44;;;;;;;0.60;0.60;;;29.40;85.80;;;;;;5051955;28;20426;-62
2022/08/30 10:08:29;;;;;;;0.55;0.55;;;28.70;85.90;;;;;;4976109;28;20516;-63
2022/08/30 10:11:00;;;;;;;0.50;0.50;;;28.40;85.70;;;;;;5053645;28;20525;-61
2022/08/30 10:13:47;;;;;;;0.60;0.60;;;28.30;85.60;;;;;;5024815;28;20534;-62
2022/08/30 10:16:19;;;;;;;1.00;0.80;;;28.90;85.90;;;;;;5026371;28;20426;-62
2022/08/30 10:19:01;;;;;;;0.52;0.50;;;29.20;84.30;;;;;;5022590;28;20460;-63
2022/08/30 10:21:41;;;;;;;0.32;0.32;;;29.30;84.30;;;;;;5016025;28;21124;-63
2022/08/30 10:24:14;;;;;;;0.52;0.52;;;29.70;84.30;;;;;;5011515;28;20425;-63
2022/08/30 10:27:00;;;;;;;0.80;0.60;;;29.90;82.90;;;;;;5011005;28;20434;-63
2022/08/30 10:29:32;;;;;;;0.52;0.52;;;30.20;81.40;;;;;;5017126;28;20959;-62
2022/08/30 10:32:11;;;;;;;0.50;0.50;;;29.90;81.80;;;;;;5023836;28;20435;-63
2022/08/30 10:34:45;;;;;;;0.40;0.40;;;29.90;82.40;;;;;;5009709;28;20977;-63
2022/08/30 10:37:20;;;;;;;0.47;0.47;;;;;;;;;;5023378;28;20433;-62
2022/08/30 10:39:53;;;;;;;0.73;0.73;;;;;;;;;;5027521;28;20889;-63
2022/08/30 10:42:26;;;;;;;0.47;0.47;;;;;;;;;;5024860;28;20435;-62
2022/08/30 10:45:02;;;;;;;0.75;0.75;;;;;;;;;;5020833;28;20432;-63
2022/08/30 10:47:41;;;;;;;0.50;0.50;;;;;;;;;;5026321;28;20525;-63
2022/08/30 10:50:21;;;;;;;0.50;0.50;;;;;;;;;;5022709;28;20999;-63
2022/08/30 10:53:08;;;;;;;0.60;0.60;;;;;;;;;;5020781;28;20939;-63
2022/08/30 10:55:44;;;;;;;0.68;0.68;;;30.10;81.70;;;;;;5026020;28;21004;-63
2022/08/30 10:58:17;;;;;;;0.40;0.40;;;30.90;79.50;;;;;;5010877;28;20930;-63
2022/08/30 11:00:58;;;;;;;0.50;0.50;;;31.40;79.00;;;;;;5022588;28;20962;-63
2022/08/30 11:03:35;;;;;;;0.57;0.57;;;31.50;78.40;;;;;;5053227;28;20510;-62
2022/08/30 11:06:05;;;;;;;0.60;0.60;;;31.20;77.90;;;;;;5027804;28;20763;-63
2022/08/30 11:09:03;;;;;;;0.40;0.40;;;31.40;78.20;;;;;;5028629;28;20522;-62
2022/08/30 11:11:36;;;;;;;0.55;0.55;;;31.60;78.60;;;;;;5026767;28;20854;-63
2022/08/30 11:14:08;;;;;;;0.60;0.60;;;31.30;78.60;;;;;;5012639;28;20472;-63
2022/08/30 11:16:41;;;;;;;0.40;0.40;;;31.10;78.10;;;;;;5013751;28;20441;-62
2022/08/30 11:19:38;;;;;;;0.50;0.50;;;31.20;77.90;;;;;;5020086;28;20995;-63
2022/08/30 11:22:23;;;;;;;0.40;0.40;;;31.20;76.70;;;;;;5020754;28;20486;-63
2022/08/30 11:24:59;;;;;;;0.50;0.50;;;31.60;76.70;;;;;;5021592;28;20766;-63
2022/08/30 11:27:42;;;;;;;1.03;0.60;;;32.00;75.90;;;;;;5024057;28;21032;-63
2022/08/30 11:30:24;;;;;;;0.50;0.50;;;32.10;76.00;;;;;;5019787;28;20597;-62
2022/08/30 11:32:58;;;;;;;0.45;0.45;;;31.60;76.00;;;;;;5027349;28;20792;-63
2022/08/30 11:36:06;;;;;;;0.45;0.45;;;31.20;75.90;;;;;;5023783;28;20434;-63
2022/08/30 11:38:33;;;;;;;0.40;0.40;;;31.00;75.50;;;;;;5015825;28;20502;-60
2022/08/30 11:41:13;;;;;;;0.40;0.40;;;31.10;76.00;;;;;;5020458;28;20909;-61
2022/08/30 11:43:42;;;;;;;0.50;0.50;;;30.90;77.00;;;;;;5021754;28;20442;-61
2022/08/30 11:46:16;;;;;;;0.40;0.40;;;31.30;76.50;;;;;;5028934;28;20447;-63
2022/08/30 11:49:04;;;;;;;0.50;0.50;;;31.80;75.50;;;;;;5026447;28;20917;-64
2022/08/30 11:52:05;;;;;;;0.50;0.50;;;32.30;75.00;;;;;;5018012;28;20434;-63
2022/08/30 11:55:19;;;;;;;0.70;0.70;;;32.40;73.90;;;;;;5019540;28;20434;-64
2022/08/30 11:58:06;;;;;;;0.50;0.50;;;32.50;73.80;;;;;;5025498;28;20431;-63
2022/08/30 12:00:40;;;;;;;0.60;0.60;;;32.60;73.10;;;;;;5024496;28;20466;-63
2022/08/30 12:03:25;;;;;;;0.57;0.57;;;32.50;73.60;;;;;;5030830;28;20518;-64
2022/08/30 12:06:06;;;;;;;0.40;0.40;;;32.40;74.00;;;;;;5027003;28;21136;-62
2022/08/30 12:08:33;;;;;;;0.50;0.50;;;32.00;73.60;;;;;;5026807;28;20427;-62
2022/08/30 12:11:10;;;;;;;0.57;0.57;;;32.10;73.30;;;;;;5025225;28;20430;-64
2022/08/30 12:13:43;;;;;;;0.50;0.50;;;32.50;73.70;;;;;;5023720;28;20445;-63
2022/08/30 12:16:19;;;;;;;0.50;0.50;;;32.70;73.40;;;;;;5018539;28;20501;-63
2022/08/30 12:19:19;;;;;;;0.93;0.60;;;33.10;72.70;;;;;;5025605;28;20587;-63
2022/08/30 12:22:03;;;;;;;0.35;0.35;;;32.90;72.50;;;;;;4943231;29;20447;-63
2022/08/30 12:24:51;;;;;;;0.50;0.50;;;32.60;72.40;;;;;;4940319;29;20540;-63
2022/08/30 12:27:32;;;;;;;0.50;0.50;;;32.60;72.10;;;;;;4947381;29;20449;-63
2022/08/30 12:30:07;;;;;;;0.50;0.50;;;32.20;72.70;;;;;;4937794;28;20522;-63
2022/08/30 12:32:46;;;;;;;0.43;0.43;;;32.50;74.60;;;;;;4945900;29;20933;-63
2022/08/30 12:35:27;;;;;;;0.50;0.50;;;32.80;73.00;;;;;;4944569;29;21041;-64
2022/08/30 12:38:06;;;;;;;0.52;0.52;;;32.90;72.00;;;;;;4941139;29;21111;-62
2022/08/30 12:40:33;;;;;;;0.40;0.40;;;33.00;72.10;;;;;;4937185;29;20433;-63
2022/08/30 12:43:17;;;;;;;0.40;0.40;;;32.40;72.20;;;;;;4939988;29;21048;-63
2022/08/30 12:45:49;;;;;;;0.60;0.40;;;32.80;71.80;;;;;;4939739;29;20518;-63
2022/08/30 12:48:18;;;;;;;0.60;0.60;;;32.90;72.30;;;;;;4938965;28;20464;-62
2022/08/30 12:50:53;;;;;;;0.47;0.47;;;33.00;72.00;;;;;;4943913;29;20445;-62
2022/08/30 12:53:28;;;;;;;0.50;0.50;;;33.30;71.90;;;;;;4939587;28;20441;-63
2022/08/30 12:56:01;;;;;;;0.90;0.60;;;33.40;71.80;;;;;;4941110;29;20476;-64
2022/08/30 12:58:37;;;;;;;0.40;0.40;;;33.70;71.10;;;;;;5037243;28;20436;-62
2022/08/30 13:01:31;;;;;;;0.60;0.60;;;33.80;70.90;;;;;;5036413;28;20518;-61
2022/08/30 13:04:16;;;;;;;0.50;0.50;;;34.20;70.20;;;;;;5023089;28;20766;-63
2022/08/30 13:06:49;;;;;;;0.40;0.40;;;34.50;70.90;;;;;;5025823;28;20510;-62
2022/08/30 13:09:30;;;;;;;0.40;0.40;;;34.40;69.30;;;;;;5023416;28;20471;-63
2022/08/30 13:12:00;;;;;;;0.50;0.50;;;34.90;69.40;;;;;;5020194;28;20490;-63
2022/08/30 13:14:42;;;;;;;0.50;0.50;;;34.80;69.20;;;;;;5025006;28;20493;-63
2022/08/30 13:17:09;;;;;;;0.60;0.60;;;34.10;69.40;;;;;;5024920;28;20522;-64
2022/08/30 13:19:42;;;;;;;0.70;0.70;;;35.00;69.00;;;;;;5019260;28;20432;-65
2022/08/30 13:22:29;;;;;;;0.47;0.47;;;35.20;69.10;;;;;;5016780;28;20437;-64
2022/08/30 13:24:57;;;;;;;0.50;0.50;;;35.30;68.00;;;;;;5019906;28;20429;-61
2022/08/30 13:27:25;;;;;;;0.60;0.60;;;35.00;68.00;;;;;;5023881;28;20513;-64
2022/08/30 13:29:53;;;;;;;0.50;0.50;;;34.60;67.70;;;;;;5018984;28;20430;-63
2022/08/30 13:32:22;;;;;;;0.47;0.47;;;34.70;68.70;;;;;;5020628;28;20974;-62
2022/08/30 13:34:49;;;;;;;0.70;0.63;;;35.20;67.70;;;;;;5019412;28;20485;-63
2022/08/30 13:37:22;;;;;;;0.50;0.50;;;34.80;67.70;;;;;;5019571;28;20454;-63
2022/08/30 13:40:12;;;;;;;0.40;0.40;;;34.40;69.30;;;;;;5022349;28;20434;-63
2022/08/30 13:42:41;;;;;;;0.40;0.40;;;34.50;70.10;;;;;;5025584;28;20473;-63
2022/08/30 13:45:09;;;;;;;0.55;0.55;;;35.40;68.60;;;;;;5024959;28;20510;-63
2022/08/30 13:47:56;;;;;;;0.60;0.60;;;35.80;67.40;;;;;;5021862;28;20497;-63
2022/08/30 13:50:26;;;;;;;0.45;0.45;;;36.30;66.40;;;;;;5026072;28;20997;-62